sensor_id;sensor_type;location;lat;lon;timestamp;P1;durP1;ratioP1;P2;durP2;ratioP2
3967;SDS011;9221;42.646;23.380;2023-02-01T00:01:08;7.13;;;2.37;;
3967;SDS011;9221;42.646;23.380;2023-02-01T00:03:35;6.07;;;2.20;;
3967;SDS011;9221;42.646;23.380;2023-02-01T00:06:00;5.20;;;2.80;;
3967;SDS011;9221;42.646;23.380;2023-02-01T00:08:26;5.67;;;2.30;;
3967;SDS011;9221;42.646;23.380;2023-02-01T00:10:59;6.20;;;2.10;;
3967;SDS011;9221;42.646;23.380;2023-02-01T00:13:32;4.87;;;2.60;;
3967;SDS011;9221;42.646;23.380;2023-02-01T00:16:06;3.07;;;2.20;;
3967;SDS011;9221;42.646;23.380;2023-02-01T00:18:33;3.47;;;2.20;;
3967;SDS011;9221;42.646;23.380;2023-02-01T00:20:59;5.40;;;2.57;;
3967;SDS011;9221;42.646;23.380;2023-02-01T00:23:25;17.13;;;3.00;;
3967;SDS011;9221;42.646;23.380;2023-02-01T00:25:50;2.93;;;1.90;;
3967;SDS011;9221;42.646;23.380;2023-02-01T00:28:15;7.83;;;2.93;;
3967;SDS011;9221;42.646;23.380;2023-02-01T00:30:41;4.50;;;2.50;;
3967;SDS011;9221;42.646;23.380;2023-02-01T00:36:12;6.80;;;3.07;;
3967;SDS011;9221;42.646;23.380;2023-02-01T00:38:37;3.93;;;2.20;;
3967;SDS011;9221;42.646;23.380;2023-02-01T00:43:34;4.77;;;2.20;;
3967;SDS011;9221;42.646;23.380;2023-02-01T00:46:00;5.47;;;2.37;;
3967;SDS011;9221;42.646;23.380;2023-02-01T00:48:25;4.67;;;2.27;;
3967;SDS011;9221;42.646;23.380;2023-02-01T00:50:51;4.63;;;2.17;;
3967;SDS011;9221;42.646;23.380;2023-02-01T00:53:17;5.83;;;2.13;;
3967;SDS011;9221;42.646;23.380;2023-02-01T00:55:46;4.23;;;1.87;;
3967;SDS011;9221;42.646;23.380;2023-02-01T00:58:12;5.33;;;2.27;;
3967;SDS011;9221;42.646;23.380;2023-02-01T01:00:37;3.93;;;1.80;;
3967;SDS011;9221;42.646;23.380;2023-02-01T01:03:03;6.83;;;2.47;;
3967;SDS011;9221;42.646;23.380;2023-02-01T01:05:42;8.43;;;1.90;;
3967;SDS011;9221;42.646;23.380;2023-02-01T01:08:08;3.10;;;1.70;;
3967;SDS011;9221;42.646;23.380;2023-02-01T01:10:34;7.03;;;2.33;;
3967;SDS011;9221;42.646;23.380;2023-02-01T01:12:59;4.80;;;1.70;;
3967;SDS011;9221;42.646;23.380;2023-02-01T01:15:25;2.63;;;1.50;;
3967;SDS011;9221;42.646;23.380;2023-02-01T01:17:50;6.70;;;2.10;;
3967;SDS011;9221;42.646;23.380;2023-02-01T01:20:15;3.20;;;1.47;;
3967;SDS011;9221;42.646;23.380;2023-02-01T01:22:41;2.60;;;1.93;;
3967;SDS011;9221;42.646;23.380;2023-02-01T01:25:07;5.70;;;1.60;;
3967;SDS011;9221;42.646;23.380;2023-02-01T01:27:32;5.97;;;1.53;;
3967;SDS011;9221;42.646;23.380;2023-02-01T01:29:57;2.70;;;1.40;;
3967;SDS011;9221;42.646;23.380;2023-02-01T01:32:23;7.50;;;2.20;;
3967;SDS011;9221;42.646;23.380;2023-02-01T01:34:48;6.30;;;2.00;;
3967;SDS011;9221;42.646;23.380;2023-02-01T01:37:13;4.33;;;1.90;;
3967;SDS011;9221;42.646;23.380;2023-02-01T01:39:39;5.03;;;1.30;;
3967;SDS011;9221;42.646;23.380;2023-02-01T01:42:04;2.73;;;1.10;;
3967;SDS011;9221;42.646;23.380;2023-02-01T01:47:26;7.73;;;2.00;;
3967;SDS011;9221;42.646;23.380;2023-02-01T01:50:01;3.80;;;1.80;;
3967;SDS011;9221;42.646;23.380;2023-02-01T01:52:28;3.33;;;1.40;;
3967;SDS011;9221;42.646;23.380;2023-02-01T01:54:53;3.03;;;1.50;;
3967;SDS011;9221;42.646;23.380;2023-02-01T01:57:26;4.23;;;2.07;;
3967;SDS011;9221;42.646;23.380;2023-02-01T02:00:08;2.60;;;1.33;;
3967;SDS011;9221;42.646;23.380;2023-02-01T02:02:36;4.60;;;1.87;;
3967;SDS011;9221;42.646;23.380;2023-02-01T02:05:03;6.30;;;1.77;;
3967;SDS011;9221;42.646;23.380;2023-02-01T02:07:30;4.30;;;1.70;;
3967;SDS011;9221;42.646;23.380;2023-02-01T02:10:00;3.27;;;1.50;;
3967;SDS011;9221;42.646;23.380;2023-02-01T02:12:27;4.50;;;2.23;;
3967;SDS011;9221;42.646;23.380;2023-02-01T02:14:53;4.67;;;1.53;;
3967;SDS011;9221;42.646;23.380;2023-02-01T02:17:36;3.37;;;1.70;;
3967;SDS011;9221;42.646;23.380;2023-02-01T02:31:05;5.47;;;1.53;;
3967;SDS011;9221;42.646;23.380;2023-02-01T02:38:58;9.10;;;1.77;;
3967;SDS011;9221;42.646;23.380;2023-02-01T02:41:32;4.47;;;1.67;;
3967;SDS011;9221;42.646;23.380;2023-02-01T02:44:25;2.53;;;1.47;;
3967;SDS011;9221;42.646;23.380;2023-02-01T02:48:07;6.70;;;1.70;;
3967;SDS011;9221;42.646;23.380;2023-02-01T02:53:37;3.00;;;1.50;;
3967;SDS011;9221;42.646;23.380;2023-02-01T02:56:27;3.53;;;1.30;;
3967;SDS011;9221;42.646;23.380;2023-02-01T02:59:12;4.40;;;1.90;;
3967;SDS011;9221;42.646;23.380;2023-02-01T03:02:00;5.90;;;1.67;;
3967;SDS011;9221;42.646;23.380;2023-02-01T03:04:44;2.93;;;1.40;;
3967;SDS011;9221;42.646;23.380;2023-02-01T03:07:13;5.50;;;1.60;;
3967;SDS011;9221;42.646;23.380;2023-02-01T03:09:59;6.93;;;1.40;;
3967;SDS011;9221;42.646;23.380;2023-02-01T03:12:29;2.73;;;1.03;;
3967;SDS011;9221;42.646;23.380;2023-02-01T03:15:18;3.53;;;1.50;;
3967;SDS011;9221;42.646;23.380;2023-02-01T03:17:44;2.83;;;1.33;;
3967;SDS011;9221;42.646;23.380;2023-02-01T03:20:10;2.03;;;0.83;;
3967;SDS011;9221;42.646;23.380;2023-02-01T03:22:40;1.83;;;0.90;;
3967;SDS011;9221;42.646;23.380;2023-02-01T03:25:10;6.20;;;1.37;;
3967;SDS011;9221;42.646;23.380;2023-02-01T03:30:25;9.80;;;1.73;;
3967;SDS011;9221;42.646;23.380;2023-02-01T03:32:54;2.30;;;1.00;;
3967;SDS011;9221;42.646;23.380;2023-02-01T03:35:36;5.57;;;1.27;;
3967;SDS011;9221;42.646;23.380;2023-02-01T03:38:19;7.67;;;1.50;;
3967;SDS011;9221;42.646;23.380;2023-02-01T03:41:09;2.30;;;1.07;;
3967;SDS011;9221;42.646;23.380;2023-02-01T03:43:37;3.40;;;1.30;;
3967;SDS011;9221;42.646;23.380;2023-02-01T03:46:20;5.70;;;0.90;;
3967;SDS011;9221;42.646;23.380;2023-02-01T03:48:49;2.80;;;1.13;;
3967;SDS011;9221;42.646;23.380;2023-02-01T03:51:17;2.63;;;1.60;;
3967;SDS011;9221;42.646;23.380;2023-02-01T03:53:45;1.90;;;0.90;;
3967;SDS011;9221;42.646;23.380;2023-02-01T03:56:14;10.93;;;1.50;;
3967;SDS011;9221;42.646;23.380;2023-02-01T03:58:43;1.40;;;0.80;;
3967;SDS011;9221;42.646;23.380;2023-02-01T04:01:23;9.40;;;1.27;;
3967;SDS011;9221;42.646;23.380;2023-02-01T04:03:48;2.93;;;1.37;;
3967;SDS011;9221;42.646;23.380;2023-02-01T04:06:14;4.37;;;1.00;;
3967;SDS011;9221;42.646;23.380;2023-02-01T04:08:40;3.33;;;1.20;;
3967;SDS011;9221;42.646;23.380;2023-02-01T04:11:05;3.03;;;1.20;;
3967;SDS011;9221;42.646;23.380;2023-02-01T04:13:31;2.50;;;1.00;;
3967;SDS011;9221;42.646;23.380;2023-02-01T04:15:56;1.87;;;0.90;;
3967;SDS011;9221;42.646;23.380;2023-02-01T04:18:21;2.40;;;1.30;;
3967;SDS011;9221;42.646;23.380;2023-02-01T04:20:47;1.47;;;0.90;;
3967;SDS011;9221;42.646;23.380;2023-02-01T04:23:12;2.10;;;1.10;;
3967;SDS011;9221;42.646;23.380;2023-02-01T04:25:38;5.37;;;1.33;;
3967;SDS011;9221;42.646;23.380;2023-02-01T04:28:03;1.60;;;0.93;;
3967;SDS011;9221;42.646;23.380;2023-02-01T04:30:29;1.00;;;0.87;;
3967;SDS011;9221;42.646;23.380;2023-02-01T04:32:55;3.80;;;1.20;;
3967;SDS011;9221;42.646;23.380;2023-02-01T04:35:20;3.80;;;1.27;;
3967;SDS011;9221;42.646;23.380;2023-02-01T04:37:46;6.47;;;1.53;;
3967;SDS011;9221;42.646;23.380;2023-02-01T04:40:12;3.30;;;1.57;;
3967;SDS011;9221;42.646;23.380;2023-02-01T04:42:38;7.77;;;1.83;;
3967;SDS011;9221;42.646;23.380;2023-02-01T04:45:03;3.63;;;2.10;;
3967;SDS011;9221;42.646;23.380;2023-02-01T04:47:29;10.17;;;1.60;;
3967;SDS011;9221;42.646;23.380;2023-02-01T04:49:54;3.03;;;1.43;;
3967;SDS011;9221;42.646;23.380;2023-02-01T04:52:20;10.80;;;1.83;;
3967;SDS011;9221;42.646;23.380;2023-02-01T04:54:45;2.20;;;1.40;;
3967;SDS011;9221;42.646;23.380;2023-02-01T04:57:10;7.90;;;1.87;;
3967;SDS011;9221;42.646;23.380;2023-02-01T04:59:38;2.93;;;1.27;;
3967;SDS011;9221;42.646;23.380;2023-02-01T05:02:04;3.70;;;1.53;;
3967;SDS011;9221;42.646;23.380;2023-02-01T05:04:29;5.00;;;2.00;;
3967;SDS011;9221;42.646;23.380;2023-02-01T05:06:55;4.67;;;1.60;;
3967;SDS011;9221;42.646;23.380;2023-02-01T05:09:20;19.63;;;2.90;;
3967;SDS011;9221;42.646;23.380;2023-02-01T05:11:46;7.50;;;2.33;;
3967;SDS011;9221;42.646;23.380;2023-02-01T05:14:30;5.13;;;2.20;;
3967;SDS011;9221;42.646;23.380;2023-02-01T05:16:55;3.90;;;1.37;;
3967;SDS011;9221;42.646;23.380;2023-02-01T05:19:21;5.63;;;2.00;;
3967;SDS011;9221;42.646;23.380;2023-02-01T05:21:46;7.40;;;1.90;;
3967;SDS011;9221;42.646;23.380;2023-02-01T05:24:12;8.00;;;2.63;;
3967;SDS011;9221;42.646;23.380;2023-02-01T05:26:49;7.20;;;2.30;;
3967;SDS011;9221;42.646;23.380;2023-02-01T05:29:14;3.77;;;1.80;;
3967;SDS011;9221;42.646;23.380;2023-02-01T05:31:41;2.57;;;1.80;;
3967;SDS011;9221;42.646;23.380;2023-02-01T05:34:08;3.20;;;1.80;;
3967;SDS011;9221;42.646;23.380;2023-02-01T05:36:34;8.17;;;2.37;;
3967;SDS011;9221;42.646;23.380;2023-02-01T05:38:59;6.27;;;1.63;;
3967;SDS011;9221;42.646;23.380;2023-02-01T05:41:25;4.70;;;2.23;;
3967;SDS011;9221;42.646;23.380;2023-02-01T05:43:50;5.30;;;2.17;;
3967;SDS011;9221;42.646;23.380;2023-02-01T05:46:15;4.03;;;1.97;;
3967;SDS011;9221;42.646;23.380;2023-02-01T05:48:41;8.50;;;2.20;;
3967;SDS011;9221;42.646;23.380;2023-02-01T05:51:08;6.27;;;3.03;;
3967;SDS011;9221;42.646;23.380;2023-02-01T05:53:34;3.43;;;2.47;;
3967;SDS011;9221;42.646;23.380;2023-02-01T05:56:00;9.27;;;2.73;;
3967;SDS011;9221;42.646;23.380;2023-02-01T05:58:25;9.80;;;2.60;;
3967;SDS011;9221;42.646;23.380;2023-02-01T06:00:51;4.57;;;2.60;;
3967;SDS011;9221;42.646;23.380;2023-02-01T06:03:16;8.67;;;2.50;;
3967;SDS011;9221;42.646;23.380;2023-02-01T06:05:45;9.73;;;2.90;;
3967;SDS011;9221;42.646;23.380;2023-02-01T06:08:11;7.47;;;2.23;;
3967;SDS011;9221;42.646;23.380;2023-02-01T06:10:37;3.60;;;2.00;;
3967;SDS011;9221;42.646;23.380;2023-02-01T06:13:03;6.60;;;1.97;;
3967;SDS011;9221;42.646;23.380;2023-02-01T06:15:29;6.73;;;2.80;;
3967;SDS011;9221;42.646;23.380;2023-02-01T06:17:54;5.93;;;2.87;;
3967;SDS011;9221;42.646;23.380;2023-02-01T06:20:20;6.67;;;1.77;;
3967;SDS011;9221;42.646;23.380;2023-02-01T06:22:46;9.03;;;1.83;;
3967;SDS011;9221;42.646;23.380;2023-02-01T06:25:11;6.67;;;1.93;;
3967;SDS011;9221;42.646;23.380;2023-02-01T06:27:37;4.30;;;1.57;;
3967;SDS011;9221;42.646;23.380;2023-02-01T06:30:03;12.47;;;2.43;;
3967;SDS011;9221;42.646;23.380;2023-02-01T06:32:30;8.23;;;2.00;;
3967;SDS011;9221;42.646;23.380;2023-02-01T06:34:55;5.17;;;1.90;;
3967;SDS011;9221;42.646;23.380;2023-02-01T06:37:22;5.90;;;1.80;;
3967;SDS011;9221;42.646;23.380;2023-02-01T06:39:49;3.17;;;1.70;;
3967;SDS011;9221;42.646;23.380;2023-02-01T06:42:15;4.13;;;1.80;;
3967;SDS011;9221;42.646;23.380;2023-02-01T06:44:40;11.63;;;1.40;;
3967;SDS011;9221;42.646;23.380;2023-02-01T06:47:06;5.73;;;2.43;;
3967;SDS011;9221;42.646;23.380;2023-02-01T06:49:31;12.70;;;1.80;;
3967;SDS011;9221;42.646;23.380;2023-02-01T06:51:57;2.50;;;1.47;;
3967;SDS011;9221;42.646;23.380;2023-02-01T06:54:25;6.03;;;1.57;;
3967;SDS011;9221;42.646;23.380;2023-02-01T06:56:51;12.50;;;1.67;;
3967;SDS011;9221;42.646;23.380;2023-02-01T06:59:16;9.83;;;2.00;;
3967;SDS011;9221;42.646;23.380;2023-02-01T07:01:41;5.40;;;1.73;;
3967;SDS011;9221;42.646;23.380;2023-02-01T07:04:08;5.03;;;1.90;;
3967;SDS011;9221;42.646;23.380;2023-02-01T07:06:35;4.30;;;1.83;;
3967;SDS011;9221;42.646;23.380;2023-02-01T07:09:00;9.13;;;1.60;;
3967;SDS011;9221;42.646;23.380;2023-02-01T07:11:26;5.03;;;1.27;;
3967;SDS011;9221;42.646;23.380;2023-02-01T07:13:53;10.30;;;1.60;;
3967;SDS011;9221;42.646;23.380;2023-02-01T07:16:19;5.23;;;1.43;;
3967;SDS011;9221;42.646;23.380;2023-02-01T07:18:45;9.40;;;1.40;;
3967;SDS011;9221;42.646;23.380;2023-02-01T07:21:11;6.40;;;1.57;;
3967;SDS011;9221;42.646;23.380;2023-02-01T07:23:37;6.10;;;2.10;;
3967;SDS011;9221;42.646;23.380;2023-02-01T07:26:04;2.60;;;1.33;;
3967;SDS011;9221;42.646;23.380;2023-02-01T07:28:31;3.17;;;1.67;;
3967;SDS011;9221;42.646;23.380;2023-02-01T07:31:05;3.33;;;1.27;;
3967;SDS011;9221;42.646;23.380;2023-02-01T07:33:36;7.83;;;1.70;;
3967;SDS011;9221;42.646;23.380;2023-02-01T07:36:03;3.63;;;1.30;;
3967;SDS011;9221;42.646;23.380;2023-02-01T07:38:30;3.10;;;1.47;;
3967;SDS011;9221;42.646;23.380;2023-02-01T07:40:58;3.83;;;1.20;;
3967;SDS011;9221;42.646;23.380;2023-02-01T07:43:25;3.00;;;1.40;;
3967;SDS011;9221;42.646;23.380;2023-02-01T07:45:51;6.03;;;1.80;;
3967;SDS011;9221;42.646;23.380;2023-02-01T07:48:18;1.03;;;0.93;;
3967;SDS011;9221;42.646;23.380;2023-02-01T07:50:44;3.77;;;1.33;;
3967;SDS011;9221;42.646;23.380;2023-02-01T07:53:09;1.53;;;1.07;;
3967;SDS011;9221;42.646;23.380;2023-02-01T07:55:37;5.30;;;1.27;;
3967;SDS011;9221;42.646;23.380;2023-02-01T07:58:03;5.60;;;1.07;;
3967;SDS011;9221;42.646;23.380;2023-02-01T08:00:28;14.53;;;1.83;;
3967;SDS011;9221;42.646;23.380;2023-02-01T08:03:12;3.87;;;1.07;;
3967;SDS011;9221;42.646;23.380;2023-02-01T08:05:37;8.60;;;1.93;;
3967;SDS011;9221;42.646;23.380;2023-02-01T08:08:03;2.67;;;0.80;;
3967;SDS011;9221;42.646;23.380;2023-02-01T08:10:29;5.73;;;1.77;;
3967;SDS011;9221;42.646;23.380;2023-02-01T08:12:57;5.33;;;1.40;;
3967;SDS011;9221;42.646;23.380;2023-02-01T08:15:24;4.07;;;1.43;;
3967;SDS011;9221;42.646;23.380;2023-02-01T08:17:49;8.03;;;1.87;;
3967;SDS011;9221;42.646;23.380;2023-02-01T08:20:16;3.40;;;1.80;;
3967;SDS011;9221;42.646;23.380;2023-02-01T08:22:42;7.80;;;1.77;;
3967;SDS011;9221;42.646;23.380;2023-02-01T08:25:08;7.07;;;1.80;;
3967;SDS011;9221;42.646;23.380;2023-02-01T08:27:33;4.40;;;1.40;;
3967;SDS011;9221;42.646;23.380;2023-02-01T08:29:59;1.80;;;0.90;;
3967;SDS011;9221;42.646;23.380;2023-02-01T08:32:25;2.47;;;1.20;;
3967;SDS011;9221;42.646;23.380;2023-02-01T08:34:51;8.03;;;1.57;;
3967;SDS011;9221;42.646;23.380;2023-02-01T08:37:17;8.10;;;1.23;;
3967;SDS011;9221;42.646;23.380;2023-02-01T08:39:42;4.90;;;1.43;;
3967;SDS011;9221;42.646;23.380;2023-02-01T08:42:12;3.33;;;1.10;;
3967;SDS011;9221;42.646;23.380;2023-02-01T08:44:57;3.80;;;1.03;;
3967;SDS011;9221;42.646;23.380;2023-02-01T08:47:23;5.77;;;2.00;;
3967;SDS011;9221;42.646;23.380;2023-02-01T08:49:48;5.13;;;1.80;;
3967;SDS011;9221;42.646;23.380;2023-02-01T08:52:14;5.00;;;1.17;;
3967;SDS011;9221;42.646;23.380;2023-02-01T08:54:39;3.63;;;1.10;;
3967;SDS011;9221;42.646;23.380;2023-02-01T08:57:06;5.20;;;1.30;;
3967;SDS011;9221;42.646;23.380;2023-02-01T08:59:31;4.73;;;1.50;;
3967;SDS011;9221;42.646;23.380;2023-02-01T09:01:57;25.43;;;1.80;;
3967;SDS011;9221;42.646;23.380;2023-02-01T09:04:22;5.80;;;2.30;;
3967;SDS011;9221;42.646;23.380;2023-02-01T09:06:48;6.07;;;1.90;;
3967;SDS011;9221;42.646;23.380;2023-02-01T09:09:13;3.53;;;1.30;;
3967;SDS011;9221;42.646;23.380;2023-02-01T09:11:39;4.17;;;1.40;;
3967;SDS011;9221;42.646;23.380;2023-02-01T09:14:04;14.93;;;2.07;;
3967;SDS011;9221;42.646;23.380;2023-02-01T09:16:29;4.70;;;1.50;;
3967;SDS011;9221;42.646;23.380;2023-02-01T09:18:55;7.53;;;1.60;;
3967;SDS011;9221;42.646;23.380;2023-02-01T09:21:20;1.97;;;0.90;;
3967;SDS011;9221;42.646;23.380;2023-02-01T09:23:46;11.50;;;1.23;;
3967;SDS011;9221;42.646;23.380;2023-02-01T09:26:13;4.60;;;1.23;;
3967;SDS011;9221;42.646;23.380;2023-02-01T09:28:39;3.80;;;1.50;;
3967;SDS011;9221;42.646;23.380;2023-02-01T09:31:04;10.10;;;1.67;;
3967;SDS011;9221;42.646;23.380;2023-02-01T09:33:29;5.20;;;1.47;;
3967;SDS011;9221;42.646;23.380;2023-02-01T09:35:59;1.53;;;0.87;;
3967;SDS011;9221;42.646;23.380;2023-02-01T09:38:25;6.80;;;1.37;;
3967;SDS011;9221;42.646;23.380;2023-02-01T09:40:52;2.00;;;0.97;;
3967;SDS011;9221;42.646;23.380;2023-02-01T09:43:21;4.07;;;1.10;;
3967;SDS011;9221;42.646;23.380;2023-02-01T09:48:32;5.30;;;1.73;;
3967;SDS011;9221;42.646;23.380;2023-02-01T09:51:02;6.50;;;0.90;;
3967;SDS011;9221;42.646;23.380;2023-02-01T09:53:38;8.63;;;1.60;;
3967;SDS011;9221;42.646;23.380;2023-02-01T09:56:32;4.50;;;1.10;;
3967;SDS011;9221;42.646;23.380;2023-02-01T09:59:12;6.53;;;1.40;;
3967;SDS011;9221;42.646;23.380;2023-02-01T10:01:40;3.57;;;1.13;;
3967;SDS011;9221;42.646;23.380;2023-02-01T10:04:08;4.20;;;1.10;;
3967;SDS011;9221;42.646;23.380;2023-02-01T10:06:44;4.40;;;1.03;;
3967;SDS011;9221;42.646;23.380;2023-02-01T10:23:04;5.67;;;1.50;;
3967;SDS011;9221;42.646;23.380;2023-02-01T10:28:15;1.30;;;0.90;;
3967;SDS011;9221;42.646;23.380;2023-02-01T10:30:46;2.40;;;1.13;;
3967;SDS011;9221;42.646;23.380;2023-02-01T10:35:45;4.73;;;1.47;;
3967;SDS011;9221;42.646;23.380;2023-02-01T10:41:19;4.83;;;1.40;;
3967;SDS011;9221;42.646;23.380;2023-02-01T10:43:53;2.77;;;1.23;;
3967;SDS011;9221;42.646;23.380;2023-02-01T10:46:25;3.57;;;1.30;;
3967;SDS011;9221;42.646;23.380;2023-02-01T10:48:52;8.50;;;1.53;;
3967;SDS011;9221;42.646;23.380;2023-02-01T10:51:26;2.40;;;1.13;;
3967;SDS011;9221;42.646;23.380;2023-02-01T10:53:59;2.77;;;1.00;;
3967;SDS011;9221;42.646;23.380;2023-02-01T10:56:28;4.30;;;1.17;;
3967;SDS011;9221;42.646;23.380;2023-02-01T10:59:05;3.07;;;1.17;;
3967;SDS011;9221;42.646;23.380;2023-02-01T11:01:36;7.50;;;1.20;;
3967;SDS011;9221;42.646;23.380;2023-02-01T11:04:05;7.63;;;1.63;;
3967;SDS011;9221;42.646;23.380;2023-02-01T11:06:53;3.30;;;1.27;;
3967;SDS011;9221;42.646;23.380;2023-02-01T11:09:32;1.67;;;0.90;;
3967;SDS011;9221;42.646;23.380;2023-02-01T11:12:03;1.60;;;0.90;;
3967;SDS011;9221;42.646;23.380;2023-02-01T11:14:34;3.90;;;1.40;;
3967;SDS011;9221;42.646;23.380;2023-02-01T11:20:12;3.10;;;0.93;;
3967;SDS011;9221;42.646;23.380;2023-02-01T11:22:38;3.63;;;1.80;;
3967;SDS011;9221;42.646;23.380;2023-02-01T11:25:13;1.83;;;0.70;;
3967;SDS011;9221;42.646;23.380;2023-02-01T11:27:40;0.70;;;0.60;;
3967;SDS011;9221;42.646;23.380;2023-02-01T11:30:06;2.60;;;0.83;;
3967;SDS011;9221;42.646;23.380;2023-02-01T11:32:32;3.20;;;0.90;;
3967;SDS011;9221;42.646;23.380;2023-02-01T11:35:02;16.93;;;1.17;;
3967;SDS011;9221;42.646;23.380;2023-02-01T11:37:36;2.20;;;1.10;;
3967;SDS011;9221;42.646;23.380;2023-02-01T11:42:56;3.90;;;0.80;;
3967;SDS011;9221;42.646;23.380;2023-02-01T11:47:53;2.60;;;1.03;;
3967;SDS011;9221;42.646;23.380;2023-02-01T11:56:02;2.90;;;0.90;;
3967;SDS011;9221;42.646;23.380;2023-02-01T12:11:53;1.03;;;0.90;;
3967;SDS011;9221;42.646;23.380;2023-02-01T12:17:34;3.57;;;0.83;;
3967;SDS011;9221;42.646;23.380;2023-02-01T12:25:16;3.77;;;1.20;;
3967;SDS011;9221;42.646;23.380;2023-02-01T12:27:53;1.70;;;0.83;;
3967;SDS011;9221;42.646;23.380;2023-02-01T12:33:43;1.07;;;0.70;;
3967;SDS011;9221;42.646;23.380;2023-02-01T12:37:11;2.63;;;0.70;;
3967;SDS011;9221;42.646;23.380;2023-02-01T12:41:52;1.73;;;0.80;;
3967;SDS011;9221;42.646;23.380;2023-02-01T12:52:46;3.47;;;0.70;;
3967;SDS011;9221;42.646;23.380;2023-02-01T12:55:36;1.50;;;0.90;;
3967;SDS011;9221;42.646;23.380;2023-02-01T13:00:49;2.67;;;0.93;;
3967;SDS011;9221;42.646;23.380;2023-02-01T13:06:26;6.47;;;1.37;;
3967;SDS011;9221;42.646;23.380;2023-02-01T13:11:34;1.43;;;1.00;;
3967;SDS011;9221;42.646;23.380;2023-02-01T13:16:50;7.50;;;0.80;;
3967;SDS011;9221;42.646;23.380;2023-02-01T13:19:26;2.60;;;0.80;;
3967;SDS011;9221;42.646;23.380;2023-02-01T13:21:56;0.87;;;0.73;;
3967;SDS011;9221;42.646;23.380;2023-02-01T13:27:13;2.20;;;0.90;;
3967;SDS011;9221;42.646;23.380;2023-02-01T13:30:03;2.60;;;1.07;;
3967;SDS011;9221;42.646;23.380;2023-02-01T13:32:39;1.10;;;0.70;;
3967;SDS011;9221;42.646;23.380;2023-02-01T13:35:25;7.00;;;1.13;;
3967;SDS011;9221;42.646;23.380;2023-02-01T13:40:49;8.67;;;1.33;;
3967;SDS011;9221;42.646;23.380;2023-02-01T13:43:38;3.83;;;1.20;;
3967;SDS011;9221;42.646;23.380;2023-02-01T13:46:09;1.50;;;0.80;;
3967;SDS011;9221;42.646;23.380;2023-02-01T13:49:01;4.70;;;0.97;;
3967;SDS011;9221;42.646;23.380;2023-02-01T13:51:32;4.57;;;1.07;;
3967;SDS011;9221;42.646;23.380;2023-02-01T13:54:01;2.90;;;0.80;;
3967;SDS011;9221;42.646;23.380;2023-02-01T13:56:28;1.90;;;0.63;;
3967;SDS011;9221;42.646;23.380;2023-02-01T13:59:51;2.10;;;0.80;;
3967;SDS011;9221;42.646;23.380;2023-02-01T14:13:13;2.90;;;0.67;;
3967;SDS011;9221;42.646;23.380;2023-02-01T14:23:56;3.17;;;0.87;;
3967;SDS011;9221;42.646;23.380;2023-02-01T14:26:25;5.17;;;0.80;;
3967;SDS011;9221;42.646;23.380;2023-02-01T14:31:39;7.90;;;0.90;;
3967;SDS011;9221;42.646;23.380;2023-02-01T14:34:13;4.10;;;1.03;;
3967;SDS011;9221;42.646;23.380;2023-02-01T14:37:01;3.67;;;1.60;;
3967;SDS011;9221;42.646;23.380;2023-02-01T14:39:31;3.30;;;0.97;;
3967;SDS011;9221;42.646;23.380;2023-02-01T14:42:20;3.57;;;1.30;;
3967;SDS011;9221;42.646;23.380;2023-02-01T14:55:35;2.33;;;0.93;;
3967;SDS011;9221;42.646;23.380;2023-02-01T14:58:46;9.60;;;1.50;;
3967;SDS011;9221;42.646;23.380;2023-02-01T15:06:29;2.27;;;1.10;;
3967;SDS011;9221;42.646;23.380;2023-02-01T15:08:59;2.60;;;0.80;;
3967;SDS011;9221;42.646;23.380;2023-02-01T15:11:28;1.67;;;0.80;;
3967;SDS011;9221;42.646;23.380;2023-02-01T15:35:04;5.35;;;1.50;;
3967;SDS011;9221;42.646;23.380;2023-02-01T15:37:31;5.80;;;1.90;;
3967;SDS011;9221;42.646;23.380;2023-02-01T15:42:35;5.90;;;1.10;;
3967;SDS011;9221;42.646;23.380;2023-02-01T15:45:21;4.37;;;1.20;;
3967;SDS011;9221;42.646;23.380;2023-02-01T15:47:52;3.50;;;1.20;;
3967;SDS011;9221;42.646;23.380;2023-02-01T15:50:20;5.50;;;1.10;;
3967;SDS011;9221;42.646;23.380;2023-02-01T15:52:50;1.57;;;0.97;;
3967;SDS011;9221;42.646;23.380;2023-02-01T15:55:18;2.10;;;0.80;;
3967;SDS011;9221;42.646;23.380;2023-02-01T15:57:47;2.57;;;1.43;;
3967;SDS011;9221;42.646;23.380;2023-02-01T16:06:28;2.87;;;1.27;;
3967;SDS011;9221;42.646;23.380;2023-02-01T16:08:55;3.83;;;1.20;;
3967;SDS011;9221;42.646;23.380;2023-02-01T16:11:40;2.73;;;1.13;;
3967;SDS011;9221;42.646;23.380;2023-02-01T16:14:13;4.50;;;0.80;;
3967;SDS011;9221;42.646;23.380;2023-02-01T16:16:39;4.60;;;0.90;;
3967;SDS011;9221;42.646;23.380;2023-02-01T16:19:04;2.10;;;1.00;;
3967;SDS011;9221;42.646;23.380;2023-02-01T16:21:29;4.33;;;1.20;;
3967;SDS011;9221;42.646;23.380;2023-02-01T16:23:55;3.30;;;1.00;;
3967;SDS011;9221;42.646;23.380;2023-02-01T16:26:20;4.57;;;0.93;;
3967;SDS011;9221;42.646;23.380;2023-02-01T16:28:46;1.80;;;0.90;;
3967;SDS011;9221;42.646;23.380;2023-02-01T16:31:13;6.73;;;1.60;;
3967;SDS011;9221;42.646;23.380;2023-02-01T16:33:44;2.53;;;1.20;;
3967;SDS011;9221;42.646;23.380;2023-02-01T16:36:19;10.40;;;0.97;;
3967;SDS011;9221;42.646;23.380;2023-02-01T16:38:46;6.30;;;1.00;;
3967;SDS011;9221;42.646;23.380;2023-02-01T16:41:14;2.63;;;0.90;;
3967;SDS011;9221;42.646;23.380;2023-02-01T16:43:41;6.10;;;1.40;;
3967;SDS011;9221;42.646;23.380;2023-02-01T16:46:12;6.07;;;1.33;;
3967;SDS011;9221;42.646;23.380;2023-02-01T16:48:40;3.33;;;1.00;;
3967;SDS011;9221;42.646;23.380;2023-02-01T16:51:11;5.63;;;1.20;;
3967;SDS011;9221;42.646;23.380;2023-02-01T16:53:38;1.20;;;0.70;;
3967;SDS011;9221;42.646;23.380;2023-02-01T16:56:10;4.13;;;1.20;;
3967;SDS011;9221;42.646;23.380;2023-02-01T16:58:37;4.23;;;1.13;;
3967;SDS011;9221;42.646;23.380;2023-02-01T17:01:06;3.03;;;0.97;;
3967;SDS011;9221;42.646;23.380;2023-02-01T17:03:31;5.17;;;1.50;;
3967;SDS011;9221;42.646;23.380;2023-02-01T17:05:56;5.60;;;1.43;;
3967;SDS011;9221;42.646;23.380;2023-02-01T17:08:26;4.07;;;1.37;;
3967;SDS011;9221;42.646;23.380;2023-02-01T17:10:54;3.93;;;1.73;;
3967;SDS011;9221;42.646;23.380;2023-02-01T17:13:20;9.20;;;1.40;;
3967;SDS011;9221;42.646;23.380;2023-02-01T17:15:48;5.30;;;1.30;;
3967;SDS011;9221;42.646;23.380;2023-02-01T17:18:17;6.90;;;1.50;;
3967;SDS011;9221;42.646;23.380;2023-02-01T17:20:43;3.37;;;1.53;;
3967;SDS011;9221;42.646;23.380;2023-02-01T17:23:11;2.60;;;1.27;;
3967;SDS011;9221;42.646;23.380;2023-02-01T17:25:37;3.80;;;1.43;;
3967;SDS011;9221;42.646;23.380;2023-02-01T17:28:02;2.87;;;1.33;;
3967;SDS011;9221;42.646;23.380;2023-02-01T17:30:28;9.40;;;1.60;;
3967;SDS011;9221;42.646;23.380;2023-02-01T17:32:55;4.80;;;1.10;;
3967;SDS011;9221;42.646;23.380;2023-02-01T17:35:22;4.90;;;1.73;;
3967;SDS011;9221;42.646;23.380;2023-02-01T17:37:49;8.80;;;1.43;;
3967;SDS011;9221;42.646;23.380;2023-02-01T17:40:16;2.57;;;1.47;;
3967;SDS011;9221;42.646;23.380;2023-02-01T17:42:41;3.17;;;1.60;;
3967;SDS011;9221;42.646;23.380;2023-02-01T17:47:45;8.30;;;1.10;;
3967;SDS011;9221;42.646;23.380;2023-02-01T17:50:12;3.03;;;1.40;;
3967;SDS011;9221;42.646;23.380;2023-02-01T17:52:37;3.07;;;1.40;;
3967;SDS011;9221;42.646;23.380;2023-02-01T17:55:09;6.73;;;1.77;;
3967;SDS011;9221;42.646;23.380;2023-02-01T17:57:42;3.40;;;1.60;;
3967;SDS011;9221;42.646;23.380;2023-02-01T18:00:08;3.13;;;1.10;;
3967;SDS011;9221;42.646;23.380;2023-02-01T18:02:34;3.97;;;1.23;;
3967;SDS011;9221;42.646;23.380;2023-02-01T18:04:59;4.20;;;0.80;;
3967;SDS011;9221;42.646;23.380;2023-02-01T18:07:25;2.40;;;1.03;;
3967;SDS011;9221;42.646;23.380;2023-02-01T18:09:50;4.87;;;1.20;;
3967;SDS011;9221;42.646;23.380;2023-02-01T18:12:20;2.00;;;0.93;;
3967;SDS011;9221;42.646;23.380;2023-02-01T18:14:47;5.73;;;0.93;;
3967;SDS011;9221;42.646;23.380;2023-02-01T18:17:13;2.93;;;0.80;;
3967;SDS011;9221;42.646;23.380;2023-02-01T18:19:39;2.47;;;0.83;;
3967;SDS011;9221;42.646;23.380;2023-02-01T18:22:04;7.53;;;1.83;;
3967;SDS011;9221;42.646;23.380;2023-02-01T18:24:30;5.53;;;2.23;;
3967;SDS011;9221;42.646;23.380;2023-02-01T18:26:57;8.20;;;2.20;;